Time;durP1;ratioP1;P1;durP2;ratioP2;P2;SDS_P1;SDS_P2;PMS_P1;PMS_P2;Temp;Humidity;BMP_temperature;BMP_pressure;BME280_temperature;BME280_humidity;BME280_pressure;Samples;Min_cycle;Max_cycle;Signal;HPM_P1;HPM_P2
2022/04/24 00:04:33;;;;;;;3.93;3.40;;;;;;;10.33;25.48;99141.16;10411279;28;20269;-85
2022/04/24 00:09:37;;;;;;;4.00;3.70;;;;;;;10.03;26.45;99136.78;10423749;28;20247;-86
2022/04/24 00:14:39;;;;;;;3.93;3.60;;;;;;;10.49;25.29;99138.69;10442758;28;20204;-87
2022/04/24 00:19:43;;;;;;;3.90;3.30;;;;;;;10.59;25.19;99135.81;10434171;28;20693;-86
2022/04/24 00:24:45;;;;;;;3.63;3.33;;;;;;;9.51;26.51;99135.53;10442409;28;20238;-84
2022/04/24 00:29:47;;;;;;;4.03;3.57;;;;;;;10.52;25.12;99133.00;10424769;28;20243;-89
2022/04/24 00:34:49;;;;;;;5.53;3.70;;;;;;;10.20;25.38;99126.56;10448195;28;20235;-89
2022/04/24 00:39:52;;;;;;;4.60;4.20;;;;;;;10.27;25.45;99127.38;10442243;28;20281;-89
2022/04/24 00:44:54;;;;;;;4.63;4.23;;;;;;;10.44;25.54;99128.56;10444095;28;20209;-86
2022/04/24 00:50:09;;;;;;;6.30;4.10;;;;;;;10.07;25.73;99125.34;10421508;28;20671;-88
2022/04/24 00:55:11;;;;;;;4.80;4.00;;;;;;;9.81;26.23;99127.38;10442644;28;20478;-89
2022/04/24 01:00:15;;;;;;;4.10;3.70;;;;;;;9.86;25.90;99124.16;10425026;28;20794;-90
2022/04/24 01:05:18;;;;;;;3.93;3.63;;;;;;;10.10;26.05;99121.69;10426655;28;20699;-89
2022/04/24 01:10:20;;;;;;;4.43;3.90;;;;;;;9.73;26.26;99131.47;10420468;28;20208;-89
2022/04/24 01:15:22;;;;;;;4.67;4.27;;;;;;;10.04;26.33;99129.03;10424251;28;20200;-91
2022/04/24 01:20:24;;;;;;;4.43;4.03;;;;;;;10.40;26.01;99127.75;10424445;28;20217;-90
2022/04/24 01:25:26;;;;;;;3.93;3.53;;;;;;;8.74;27.33;99134.13;10443953;28;20341;-89
2022/04/24 01:30:29;;;;;;;7.33;4.17;;;;;;;9.38;26.32;99137.16;10423000;28;20200;-89
2022/04/24 01:35:31;;;;;;;5.97;3.97;;;;;;;10.24;26.01;99128.19;10421620;28;20225;-87
2022/04/24 01:40:33;;;;;;;5.13;4.63;;;;;;;9.72;26.53;99132.69;10421533;28;20208;-89
2022/04/24 01:45:35;;;;;;;5.00;4.50;;;;;;;9.89;26.11;99120.50;10424560;28;20217;-90
2022/04/24 01:50:37;;;;;;;5.33;4.40;;;;;;;9.91;26.19;99120.91;10426557;28;20205;-89
2022/04/24 01:55:40;;;;;;;4.73;4.30;;;;;;;10.10;26.09;99118.84;10429084;28;20219;-87
2022/04/24 02:00:42;;;;;;;6.63;4.60;;;;;;;9.12;26.95;99118.38;10442434;28;20536;-89
2022/04/24 02:05:44;;;;;;;5.53;4.50;;;;;;;9.40;26.61;99117.66;10437549;28;20794;-89
2022/04/24 02:10:48;;;;;;;6.87;4.70;;;;;;;9.82;26.42;99117.63;10409050;28;20211;-86
2022/04/24 02:15:50;;;;;;;6.03;5.10;;;;;;;9.62;26.39;99110.75;10414562;28;20228;-89
2022/04/24 02:20:52;;;;;;;7.67;4.87;;;;;;;8.87;27.87;99126.84;10435632;28;20208;-91
2022/04/24 02:25:54;;;;;;;6.43;5.17;;;;;;;9.61;26.49;99120.50;10437105;28;20235;-89
2022/04/24 02:30:57;;;;;;;4.73;4.30;;;;;;;8.97;27.69;99128.09;10442940;28;20269;-89
2022/04/24 02:35:59;;;;;;;5.67;5.07;;;;;;;8.93;27.48;99127.25;10443900;28;20224;-84
2022/04/24 02:41:01;;;;;;;4.40;4.10;;;;;;;9.36;26.53;99123.34;10423699;28;20257;-83
2022/04/24 02:46:04;;;;;;;4.43;4.03;;;;;;;9.14;27.11;99116.78;10418415;28;20212;-85
2022/04/24 02:51:06;;;;;;;4.70;4.27;;;;;;;9.32;26.90;99121.69;10434778;28;20208;-83
2022/04/24 02:56:08;;;;;;;4.67;4.27;;;;;;;8.98;27.18;99136.22;10435359;28;20283;-82
2022/04/24 03:01:11;;;;;;;4.50;4.10;;;;;;;9.45;26.79;99137.16;10434453;28;20199;-84
2022/04/24 03:06:14;;;;;;;5.37;4.87;;;;;;;8.54;28.46;99133.59;10440779;28;20455;-82
2022/04/24 03:11:16;;;;;;;5.20;4.70;;;;;;;8.47;28.32;99128.69;10430217;28;20204;-82
2022/04/24 03:16:18;;;;;;;5.80;5.13;;;;;;;8.26;28.31;99128.56;10448904;28;20215;-83
2022/04/24 03:21:20;;;;;;;5.37;4.90;;;;;;;9.20;27.09;99114.34;10466216;28;20242;-83
2022/04/24 03:26:22;;;;;;;6.07;5.47;;;;;;;8.77;27.96;99116.25;10432660;28;20224;-82
2022/04/24 03:31:25;;;;;;;5.67;5.17;;;;;;;8.72;27.96;99122.34;10466434;28;20187;-82
2022/04/24 03:36:27;;;;;;;5.90;5.30;;;;;;;9.02;27.73;99117.13;10466125;28;20223;-82
2022/04/24 03:41:29;;;;;;;6.67;5.93;;;;;;;8.19;28.91;99122.84;10465511;28;20200;-89
2022/04/24 03:46:31;;;;;;;6.83;6.13;;;;;;;8.09;29.29;99117.94;10465041;28;20237;-84
2022/04/24 03:51:34;;;;;;;8.33;6.43;;;;;;;8.57;28.43;99114.97;10465360;28;20208;-84
2022/04/24 03:56:36;;;;;;;7.53;6.20;;;;;;;8.24;29.05;99125.28;10465079;28;20250;-83
2022/04/24 04:01:39;;;;;;;7.03;6.13;;;;;;;8.61;28.84;99112.97;10466426;28;20274;-82
2022/04/24 04:06:41;;;;;;;7.10;6.07;;;;;;;8.66;28.21;99121.06;10450170;28;20697;-82
2022/04/24 04:11:43;;;;;;;7.03;6.33;;;;;;;7.72;29.70;99135.06;10466713;28;20192;-83
2022/04/24 04:16:45;;;;;;;6.43;5.83;;;;;;;8.14;29.74;99131.72;10447896;28;20220;-84
2022/04/24 04:21:48;;;;;;;7.53;6.07;;;;;;;7.92;29.47;99130.78;10463757;28;20200;-84
2022/04/24 04:26:50;;;;;;;7.90;6.57;;;;;;;8.11;29.68;99143.88;10464981;28;20211;-83
2022/04/24 04:31:52;;;;;;;7.20;6.00;;;;;;;7.95;29.57;99140.53;10463997;28;20249;-85
2022/04/24 04:36:54;;;;;;;7.33;6.60;;;;;;;8.30;29.55;99143.59;10446905;28;20242;-83
2022/04/24 04:41:57;;;;;;;7.33;6.13;;;;;;;8.21;29.59;99142.31;10463845;28;20204;-83
2022/04/24 04:46:59;;;;;;;6.73;6.03;;;;;;;8.29;29.34;99138.31;10446440;28;20211;-86
2022/04/24 04:52:01;;;;;;;7.37;5.93;;;;;;;8.10;29.59;99151.59;10446483;28;20192;-82
2022/04/24 04:57:03;;;;;;;7.60;5.93;;;;;;;8.23;29.78;99162.63;10462661;28;20241;-83
2022/04/24 05:02:06;;;;;;;10.37;6.37;;;;;;;8.71;28.55;99160.47;10444425;28;20254;-82
2022/04/24 05:07:10;;;;;;;7.80;6.17;;;;;;;8.24;29.39;99165.03;10440624;28;20270;-83
2022/04/24 05:12:12;;;;;;;6.27;5.50;;;;;;;8.82;28.51;99172.69;10438828;28;20201;-84
2022/04/24 05:17:14;;;;;;;6.97;5.60;;;;;;;8.38;28.85;99181.34;10438877;28;20265;-84
2022/04/24 05:22:16;;;;;;;6.40;5.07;;;;;;;8.65;28.77;99179.91;10422490;28;20212;-82
2022/04/24 05:27:19;;;;;;;7.00;5.60;;;;;;;8.57;28.87;99175.41;10438224;28;20227;-83
2022/04/24 05:32:21;;;;;;;7.37;5.87;;;;;;;8.20;29.43;99181.25;10451765;28;20262;-83
2022/04/24 05:37:23;;;;;;;7.90;5.90;;;;;;;8.48;29.33;99186.28;10452261;28;20238;-83
2022/04/24 05:42:26;;;;;;;5.77;5.10;;;;;;;8.14;29.75;99191.31;10428466;28;20203;-82
2022/04/24 05:47:28;;;;;;;7.10;5.20;;;;;;;8.25;29.47;99188.56;10440709;28;20223;-82
2022/04/24 05:52:30;;;;;;;6.83;5.30;;;;;;;8.67;29.38;99194.53;10428574;28;20208;-82
2022/04/24 05:57:33;;;;;;;7.17;5.53;;;;;;;9.05;28.30;99183.72;10424351;28;20489;-83
2022/04/24 06:02:36;;;;;;;7.07;5.70;;;;;;;9.37;28.23;99186.72;10441670;28;20196;-82
2022/04/24 06:07:41;;;;;;;5.90;5.23;;;;;;;8.60;28.68;99193.69;10422907;28;21023;-82
2022/04/24 06:12:44;;;;;;;8.93;6.40;;;;;;;7.74;30.20;99200.69;10421970;28;20286;-82
2022/04/24 06:17:47;;;;;;;7.47;6.00;;;;;;;8.74;29.52;99188.09;10421801;28;20281;-83
2022/04/24 06:22:54;;;;;;;7.67;5.83;;;;;;;9.37;28.18;99190.38;10420580;28;20262;-82
2022/04/24 06:27:57;;;;;;;6.20;4.93;;;;;;;9.34;28.04;99193.19;10420315;28;20220;-82
2022/04/24 06:33:01;;;;;;;5.70;5.20;;;;;;;8.63;29.66;99187.22;10445131;28;20219;-84
2022/04/24 06:38:04;;;;;;;6.50;5.90;;;;;;;8.72;29.19;99202.69;10439446;28;20200;-83
2022/04/24 06:43:07;;;;;;;6.33;5.10;;;;;;;9.21;28.29;99190.69;10424821;28;20270;-82
2022/04/24 06:48:11;;;;;;;7.93;5.20;;;;;;;9.78;27.73;99182.28;10452873;28;20228;-83
2022/04/24 06:53:18;;;;;;;6.63;5.77;;;;;;;10.10;27.57;99184.34;10458321;28;20196;-85
2022/04/24 06:58:20;;;;;;;7.17;5.27;;;;;;;9.02;28.29;99193.88;10451329;28;20246;-84
2022/04/24 07:03:24;;;;;;;10.07;5.87;;;;;;;9.12;28.54;99181.75;10433625;28;20225;-85
2022/04/24 07:08:29;;;;;;;5.73;5.23;;;;;;;9.82;26.98;99183.09;10463034;28;20598;-84
2022/04/24 07:13:32;;;;;;;6.10;5.50;;;;;;;10.48;26.32;99180.59;10454158;28;20226;-84
2022/04/24 07:18:34;;;;;;;7.30;5.20;;;;;;;10.14;27.05;99185.97;10475950;28;20304;-86
2022/04/24 07:23:37;;;;;;;7.60;6.00;;;;;;;8.73;28.10;99203.50;10442287;28;20239;-90
2022/04/24 07:28:39;;;;;;;6.40;5.63;;;;;;;9.34;27.73;99193.19;10439741;28;20666;-84
2022/04/24 07:33:41;;;;;;;7.63;5.37;;;;;;;10.05;26.60;99199.00;10452990;28;20267;-84
2022/04/24 07:38:43;;;;;;;6.80;5.37;;;;;;;10.15;26.68;99198.16;10445572;28;20562;-82
2022/04/24 07:43:48;;;;;;;8.03;5.67;;;;;;;10.02;27.10;99205.50;10436485;28;20236;-87
2022/04/24 07:48:53;;;;;;;6.97;5.17;;;;;;;10.34;27.66;99199.75;10408228;28;20285;-81
2022/04/24 07:53:56;;;;;;;7.57;5.23;;;;;;;10.80;26.37;99206.22;10397767;28;20286;-83
2022/04/24 07:58:58;;;;;;;6.10;5.47;;;;;;;11.27;25.29;99190.50;10421717;28;20208;-81
2022/04/24 08:04:00;;;;;;;7.43;5.50;;;;;;;10.41;26.49;99203.44;10423419;28;20215;-83
2022/04/24 08:09:02;;;;;;;7.30;6.60;;;;;;;11.07;26.34;99197.97;10440006;28;20436;-88
2022/04/24 08:14:05;;;;;;;6.43;5.70;;;;;;;11.67;24.27;99199.66;10440651;28;20195;-89
2022/04/24 08:19:08;;;;;;;7.10;5.30;;;;;;;11.57;25.37;99203.41;10446737;28;20222;-87
2022/04/24 08:24:14;;;;;;;9.50;5.88;;;;;;;11.74;24.92;99201.66;10462607;28;20254;-84
2022/04/24 08:29:16;;;;;;;7.57;6.37;;;;;;;12.81;24.25;99207.22;10453097;28;20552;-82
2022/04/24 08:34:19;;;;;;;9.30;6.60;;;;;;;11.49;24.79;99202.63;10421736;28;20745;-83
2022/04/24 08:39:21;;;;;;;7.87;5.80;;;;;;;12.19;24.31;99205.41;10489446;28;20199;-83
2022/04/24 08:44:23;;;;;;;7.38;5.80;;;;;;;12.42;24.98;99202.72;10481131;28;20513;-89
2022/04/24 08:49:27;;;;;;;6.90;5.70;;;;;;;13.28;23.42;99191.97;10453688;28;20259;-82
2022/04/24 08:54:31;;;;;;;6.57;5.90;;;;;;;12.37;24.06;99200.34;10463445;28;20280;-90
2022/04/24 08:59:35;;;;;;;7.10;6.18;;;;;;;12.27;24.46;99196.31;10458984;28;20456;-84
2022/04/24 09:04:38;;;;;;;7.47;6.60;;;;;;;12.36;24.35;99201.56;10475721;28;20505;-84
2022/04/24 09:09:43;;;;;;;8.80;6.72;;;;;;;12.71;24.00;99206.94;10486929;28;20539;-87
2022/04/24 09:14:49;;;;;;;12.60;7.60;;;;;;;13.37;23.34;99194.28;10470165;28;20280;-83
2022/04/24 09:19:59;;;;;;;12.63;7.40;;;;;;;12.73;23.90;99201.59;10486313;28;20219;-87
2022/04/24 09:25:02;;;;;;;11.33;7.03;;;;;;;13.24;23.42;99185.47;10491742;28;20203;-88
2022/04/24 09:30:14;;;;;;;9.90;8.00;;;;;;;12.65;23.50;99182.88;10493655;28;20292;-86
2022/04/24 09:35:32;;;;;;;9.03;7.40;;;;;;;13.82;23.65;99177.69;10468944;28;20498;-88
2022/04/24 09:40:42;;;;;;;11.55;7.00;;;;;;;12.68;23.89;99182.03;10447784;28;20257;-87
2022/04/24 09:45:55;;;;;;;7.57;6.75;;;;;;;13.26;23.60;99176.47;10486968;28;20203;-91
2022/04/24 09:50:59;;;;;;;7.38;6.63;;;;;;;14.02;22.65;99161.38;10444439;28;20207;-90
2022/04/24 09:56:02;;;;;;;7.82;6.35;;;;;;;12.71;24.18;99181.19;10492832;28;20200;-91
2022/04/24 10:01:06;;;;;;;7.50;6.13;;;;;;;13.63;22.76;99166.91;10459894;28;20215;-88
2022/04/24 10:06:09;;;;;;;8.18;6.95;;;;;;;13.68;21.81;99170.09;10463006;28;20288;-85
2022/04/24 10:11:12;;;;;;;6.90;6.20;;;;;;;13.72;22.72;99170.03;10474940;28;20240;-86
2022/04/24 10:16:34;;;;;;;7.32;6.57;;;;;;;15.11;20.79;99163.41;10472475;28;20211;-89
2022/04/24 10:21:53;;;;;;;7.32;6.57;;;;;;;13.94;22.83;99177.09;10491268;28;20199;-87
2022/04/24 10:26:57;;;;;;;7.32;6.15;;;;;;;13.58;23.31;99184.56;10477605;28;20214;-86
2022/04/24 10:31:59;;;;;;;8.53;6.57;;;;;;;14.83;21.52;99176.25;10486320;28;20211;-89
2022/04/24 10:37:04;;;;;;;12.45;7.45;;;;;;;13.54;22.32;99181.78;10483834;28;20220;-90
2022/04/24 10:42:08;;;;;;;9.90;6.20;;;;;;;14.44;21.58;99170.50;10478177;28;20446;-87
2022/04/24 10:47:11;;;;;;;9.68;6.40;;;;;;;14.55;21.01;99176.81;10460754;28;20277;-88
2022/04/24 10:52:13;;;;;;;8.63;6.97;;;;;;;14.63;20.61;99172.56;10447530;28;20257;-89
2022/04/24 10:57:23;;;;;;;7.23;6.07;;;;;;;13.48;21.08;99185.53;10436028;28;20207;-90
2022/04/24 11:02:33;;;;;;;6.53;5.90;;;;;;;14.41;21.06;99171.34;10443323;28;21172;-89
2022/04/24 11:07:36;;;;;;;7.43;6.45;;;;;;;14.83;20.13;99170.53;10453007;28;20258;-89
2022/04/24 11:12:40;;;;;;;7.97;6.82;;;;;;;14.36;21.08;99177.56;10443299;28;20265;-88
2022/04/24 11:17:43;;;;;;;9.07;6.93;;;;;;;15.38;21.02;99160.31;10447635;28;20217;-90
2022/04/24 11:22:48;;;;;;;6.53;5.93;;;;;;;16.24;19.83;99159.91;10453314;28;20208;-93
2022/04/24 11:27:56;;;;;;;7.30;5.63;;;;;;;15.61;19.83;99164.38;10433621;28;20234;-89
2022/04/24 11:33:05;;;;;;;9.10;6.63;;;;;;;15.99;19.57;99168.34;10467645;28;20195;-89
2022/04/24 11:38:13;;;;;;;8.13;6.18;;;;;;;15.87;20.23;99169.06;10449138;28;20643;-89
2022/04/24 11:43:22;;;;;;;8.02;6.75;;;;;;;16.24;20.22;99177.16;10466146;28;20261;-91
2022/04/24 11:53:51;;;;;;;9.48;6.85;;;;;;;16.32;19.59;99160.50;10472542;28;20208;-91
2022/04/24 11:59:16;;;;;;;7.50;6.60;;;;;;;14.66;20.96;99183.16;10478560;28;20204;-90
2022/04/24 12:04:19;;;;;;;8.10;6.18;;;;;;;14.39;22.07;99188.19;10474043;28;20607;-89
2022/04/24 12:09:25;;;;;;;6.97;6.28;;;;;;;14.69;21.53;99181.47;10464014;28;20663;-88
2022/04/24 12:14:35;;;;;;;6.53;5.90;;;;;;;15.51;20.91;99181.34;10477241;28;20230;-89
2022/04/24 12:19:49;;;;;;;7.07;5.93;;;;;;;14.48;21.27;99199.88;10454094;28;20221;-90
2022/04/24 12:24:53;;;;;;;6.85;6.22;;;;;;;15.15;21.30;99198.56;10482194;28;20285;-90
2022/04/24 12:29:57;;;;;;;6.82;6.13;;;;;;;15.74;19.97;99194.81;10459008;28;20255;-89
2022/04/24 12:34:59;;;;;;;5.82;5.28;;;;;;;15.11;20.49;99192.09;10428658;28;20242;-89
2022/04/24 12:40:02;;;;;;;7.05;5.38;;;;;;;15.96;20.04;99186.47;10486150;28;20207;-91
2022/04/24 12:45:05;;;;;;;8.43;5.57;;;;;;;15.52;20.11;99194.44;10471842;28;20203;-90
2022/04/24 12:50:09;;;;;;;6.43;5.13;;;;;;;16.32;19.06;99188.44;10444771;28;20225;-92
2022/04/24 12:55:14;;;;;;;6.18;5.43;;;;;;;14.77;20.75;99189.47;10442832;28;20204;-87
2022/04/24 13:00:16;;;;;;;5.75;5.10;;;;;;;16.05;19.40;99183.75;10398847;28;20254;-90
2022/04/24 13:05:19;;;;;;;7.50;5.47;;;;;;;16.56;19.35;99182.03;10454249;28;20219;-86
2022/04/24 13:10:21;;;;;;;7.18;5.20;;;;;;;15.62;19.93;99194.69;10465139;28;20574;-90
2022/04/24 13:15:24;;;;;;;6.15;5.55;;;;;;;15.02;20.31;99202.53;10464641;28;20541;-88
2022/04/24 13:20:27;;;;;;;6.57;5.15;;;;;;;16.15;19.90;99182.75;10419930;28;20227;-90
2022/04/24 13:25:49;;;;;;;5.40;4.90;;;;;;;15.43;20.46;99190.56;10455150;28;20215;-85
2022/04/24 13:30:52;;;;;;;6.32;5.13;;;;;;;16.28;20.08;99182.00;10466116;28;20235;-86
2022/04/24 13:35:55;;;;;;;5.35;4.68;;;;;;;14.83;20.80;99182.00;10439831;28;20698;-86
2022/04/24 13:41:05;;;;;;;6.32;5.07;;;;;;;16.09;20.00;99181.66;10461072;28;20200;-86
2022/04/24 13:46:09;;;;;;;5.27;4.53;;;;;;;16.53;19.33;99187.91;10456511;28;20278;-86
2022/04/24 13:51:13;;;;;;;5.35;4.85;;;;;;;16.71;20.00;99185.34;10446814;28;20301;-85
2022/04/24 13:56:15;;;;;;;5.90;4.72;;;;;;;15.91;19.38;99187.81;10462004;28;20669;-85
2022/04/24 14:01:19;;;;;;;4.80;4.40;;;;;;;15.61;20.28;99190.22;10438222;28;20212;-88
2022/04/24 14:06:21;;;;;;;5.75;4.47;;;;;;;15.66;20.28;99198.28;10457887;28;20204;-85
2022/04/24 14:11:24;;;;;;;5.10;4.70;;;;;;;16.18;20.60;99184.69;10470083;28;20505;-86
2022/04/24 14:16:26;;;;;;;7.53;4.78;;;;;;;16.41;19.69;99183.69;10442094;28;20228;-92
2022/04/24 14:21:28;;;;;;;6.32;4.28;;;;;;;16.65;19.19;99190.06;10473719;28;20241;-85
2022/04/24 14:26:31;;;;;;;4.47;4.10;;;;;;;16.18;20.00;99196.19;10470299;28;20215;-90
2022/04/24 14:31:35;;;;;;;9.25;4.38;;;;;;;16.35;19.47;99199.06;10485534;28;20308;-87
2022/04/24 14:36:37;;;;;;;5.60;4.50;;;;;;;15.89;19.15;99193.22;10452056;28;20316;-87
2022/04/24 14:41:40;;;;;;;6.82;4.25;;;;;;;16.07;20.14;99200.56;10410480;28;20277;-85
2022/04/24 14:57:26;;;;;;;4.68;3.75;;;;;;;15.58;19.80;99217.75;10440146;28;20220;-88
2022/04/24 15:02:29;;;;;;;4.75;3.90;;;;;;;15.33;19.93;99226.09;10420595;28;20208;-86
2022/04/24 15:07:32;;;;;;;4.90;4.40;;;;;;;15.20;20.05;99232.50;10432642;28;20539;-89
2022/04/24 15:12:34;;;;;;;4.18;3.80;;;;;;;15.86;19.46;99230.66;10440595;28;20258;-87
2022/04/24 15:17:40;;;;;;;5.93;3.88;;;;;;;15.00;20.30;99230.84;10414832;28;20258;-88
2022/04/24 15:22:42;;;;;;;4.25;3.85;;;;;;;14.89;20.83;99233.91;10385438;28;20242;-88
2022/04/24 15:27:44;;;;;;;4.28;3.88;;;;;;;16.69;17.96;99235.97;10409963;28;20717;-89
2022/04/24 15:32:47;;;;;;;4.43;3.58;;;;;;;15.86;19.66;99233.53;10393382;28;20246;-89
2022/04/24 15:37:49;;;;;;;5.45;3.55;;;;;;;14.95;21.10;99248.56;10393494;28;20201;-87
2022/04/24 15:42:52;;;;;;;8.20;3.25;;;;;;;14.54;21.28;99246.88;10415402;28;20261;-88
2022/04/24 15:47:55;;;;;;;3.15;2.85;;;;;;;14.07;21.41;99261.16;10426166;28;20305;-87
2022/04/24 15:52:58;;;;;;;4.07;3.53;;;;;;;15.22;20.64;99254.22;10408051;28;20208;-87
2022/04/24 15:58:01;;;;;;;5.47;3.47;;;;;;;14.84;21.22;99263.94;10437964;28;20204;-90
2022/04/24 16:03:06;;;;;;;4.60;3.95;;;;;;;14.01;22.02;99277.22;10423686;28;20204;-91
2022/04/24 16:08:09;;;;;;;4.15;3.75;;;;;;;14.76;21.79;99264.50;10434118;28;20661;-87
2022/04/24 16:13:11;;;;;;;3.20;2.80;;;;;;;15.47;20.65;99266.78;10425713;28;20254;-86
2022/04/24 16:18:20;;;;;;;4.85;3.30;;;;;;;14.52;20.90;99280.91;10399622;28;20232;-91
2022/04/24 16:23:22;;;;;;;5.93;2.78;;;;;;;15.36;20.52;99271.13;10425149;28;20275;-88
2022/04/24 16:28:25;;;;;;;7.43;3.35;;;;;;;15.03;20.86;99282.44;10427152;28;20221;-87
2022/04/24 16:33:27;;;;;;;3.65;3.30;;;;;;;15.17;21.28;99269.88;10467633;28;20267;-85
2022/04/24 16:38:31;;;;;;;6.38;3.03;;;;;;;14.73;20.78;99279.72;10435975;28;20640;-89
2022/04/24 16:43:33;;;;;;;3.45;3.08;;;;;;;14.75;20.82;99283.75;10453019;28;20573;-88
2022/04/24 16:48:36;;;;;;;3.70;2.78;;;;;;;14.93;21.46;99289.19;10472357;28;20219;-88
2022/04/24 16:59:07;;;;;;;5.25;3.15;;;;;;;15.31;20.45;99281.06;10450327;28;20474;-86
2022/04/24 17:04:17;;;;;;;5.05;3.25;;;;;;;15.20;20.33;99291.97;10439139;28;20307;-86
2022/04/24 17:09:20;;;;;;;3.28;2.55;;;;;;;15.27;20.14;99291.00;10471044;28;20220;-86
2022/04/24 17:14:22;;;;;;;3.65;3.17;;;;;;;16.16;19.73;99293.56;10455950;28;20227;-86
2022/04/24 17:19:25;;;;;;;4.25;3.00;;;;;;;16.16;19.19;99295.66;10460638;28;20276;-86
2022/04/24 17:24:27;;;;;;;3.25;2.58;;;;;;;15.31;20.86;99304.03;10427156;28;20231;-87
2022/04/24 17:29:32;;;;;;;3.67;2.50;;;;;;;15.58;20.82;99301.03;10435270;28;20250;-87
2022/04/24 17:34:35;;;;;;;8.10;2.88;;;;;;;15.27;20.55;99309.03;10453378;28;20270;-87
2022/04/24 17:39:39;;;;;;;5.93;3.38;;;;;;;15.09;20.05;99318.00;10483030;28;20249;-88
2022/04/24 17:44:41;;;;;;;4.25;2.80;;;;;;;14.96;21.05;99316.19;10472545;28;20207;-88
2022/04/24 17:49:45;;;;;;;4.22;3.08;;;;;;;14.73;21.23;99320.66;10461771;28;20227;-86
2022/04/24 17:54:49;;;;;;;3.70;2.92;;;;;;;15.25;20.64;99327.97;10466509;28;20250;-87
2022/04/24 17:59:52;;;;;;;3.50;2.83;;;;;;;14.05;21.70;99343.88;10462553;28;20592;-88
2022/04/24 18:05:07;;;;;;;2.80;2.40;;;;;;;14.18;22.17;99334.69;10445867;28;20280;-88
2022/04/24 18:10:10;;;;;;;5.03;2.73;;;;;;;13.36;23.06;99342.28;10450304;28;20251;-88
2022/04/24 18:15:13;;;;;;;3.87;3.30;;;;;;;13.88;22.74;99347.78;10475177;28;20281;-86
2022/04/24 18:20:15;;;;;;;4.90;3.35;;;;;;;13.36;22.54;99355.78;10474769;28;20603;-88
2022/04/24 18:25:18;;;;;;;2.73;2.43;;;;;;;12.99;23.50;99359.44;10453138;28;20275;-88
2022/04/24 18:30:20;;;;;;;4.60;2.88;;;;;;;14.06;22.19;99361.88;10446188;28;20572;-87
2022/04/24 18:37:35;;;;;;;4.82;2.55;;;;;;;12.74;23.37;99371.91;10440101;28;20263;-87
2022/04/24 18:40:50;;;;;;;4.03;2.80;;;;;;;13.33;22.76;99377.47;10455920;28;20547;-88
2022/04/24 18:45:52;;;;;;;4.22;2.53;;;;;;;13.65;22.69;99387.75;10446813;28;20256;-88
2022/04/24 18:50:55;;;;;;;3.28;2.60;;;;;;;14.05;22.11;99401.19;10474937;28;20259;-88
2022/04/24 18:55:58;;;;;;;3.30;2.05;;;;;;;13.50;23.03;99409.19;10464068;28;20211;-86
2022/04/24 19:01:02;;;;;;;2.78;2.58;;;;;;;13.69;22.78;99411.44;10442281;28;20229;-86
2022/04/24 19:11:25;;;;;;;6.93;3.05;;;;;;;12.98;24.27;99432.16;10460163;28;20265;-88
2022/04/24 19:16:27;;;;;;;4.82;2.70;;;;;;;12.92;23.92;99442.41;10438409;28;20638;-87
2022/04/24 19:21:30;;;;;;;3.30;2.65;;;;;;;13.01;23.91;99446.44;10436152;28;20647;-87
2022/04/24 19:26:32;;;;;;;4.60;3.10;;;;;;;12.57;24.57;99452.91;10436610;28;20208;-86
2022/04/24 19:31:34;;;;;;;3.30;2.67;;;;;;;13.19;23.81;99462.66;10436724;28;20259;-87
2022/04/24 19:36:37;;;;;;;8.25;4.22;;;;;;;13.50;23.82;99477.91;10447232;28;20696;-88
2022/04/24 19:41:42;;;;;;;5.88;4.13;;;;;;;12.56;25.57;99482.72;10434722;28;20257;-88
2022/04/24 19:46:44;;;;;;;6.78;5.43;;;;;;;12.46;25.72;99488.47;10433417;28;20254;-87
2022/04/24 19:51:51;;;;;;;8.68;4.90;;;;;;;12.95;24.78;99495.94;10464291;28;20312;-87
2022/04/24 19:56:54;;;;;;;6.38;5.40;;;;;;;12.96;25.19;99494.69;10459901;28;20216;-88
2022/04/24 20:01:56;;;;;;;5.30;4.43;;;;;;;13.01;25.57;99499.97;10446569;28;20207;-89
2022/04/24 20:06:59;;;;;;;5.78;4.95;;;;;;;12.90;25.52;99505.78;10455172;28;20211;-87
2022/04/24 20:12:04;;;;;;;5.55;5.00;;;;;;;12.70;25.53;99508.34;10481282;28;20628;-87
2022/04/24 20:17:07;;;;;;;7.07;5.50;;;;;;;12.37;26.34;99514.66;10496498;28;20223;-88
2022/04/24 20:22:10;;;;;;;5.47;4.72;;;;;;;13.15;25.20;99519.91;10489245;28;20195;-89
2022/04/24 20:27:13;;;;;;;5.33;4.83;;;;;;;11.77;27.44;99526.25;10472546;28;20256;-88
2022/04/24 20:32:16;;;;;;;6.93;5.45;;;;;;;11.49;28.57;99527.91;10472249;28;20223;-87
2022/04/24 20:37:22;;;;;;;5.60;5.10;;;;;;;11.62;28.69;99542.59;10473015;28;20566;-88
2022/04/24 20:42:25;;;;;;;7.40;5.68;;;;;;;11.64;28.87;99557.25;10481772;28;20230;-87
2022/04/24 20:47:27;;;;;;;7.50;6.80;;;;;;;11.77;28.82;99547.03;10466890;28;20262;-86
2022/04/24 20:52:30;;;;;;;8.10;6.47;;;;;;;11.64;29.50;99558.06;10470421;28;20249;-87
2022/04/24 20:57:32;;;;;;;7.60;6.88;;;;;;;11.15;30.35;99553.19;10464720;28;20211;-88
2022/04/24 21:02:34;;;;;;;7.22;6.50;;;;;;;11.76;29.40;99539.69;10448457;28;20517;-88
2022/04/24 21:07:38;;;;;;;7.00;6.30;;;;;;;12.10;28.72;99548.63;10469408;28;20229;-88
2022/04/24 21:12:41;;;;;;;6.83;6.10;;;;;;;11.71;29.36;99551.56;10483854;28;20578;-89
2022/04/24 21:17:43;;;;;;;7.40;5.33;;;;;;;11.17;29.70;99559.28;10459341;28;20231;-89
2022/04/24 21:22:48;;;;;;;6.28;4.95;;;;;;;11.43;29.26;99552.41;10466767;28;20204;-89
2022/04/24 21:27:50;;;;;;;5.20;4.70;;;;;;;11.25;29.44;99560.91;10465615;28;20215;-90
2022/04/24 21:33:00;;;;;;;5.30;4.90;;;;;;;11.20;29.46;99571.94;10476710;28;20583;-90
2022/04/24 21:38:03;;;;;;;5.20;4.53;;;;;;;11.34;29.16;99577.69;10468093;28;20258;-90
2022/04/24 21:43:05;;;;;;;5.00;4.50;;;;;;;11.37;29.62;99582.53;10478046;28;20260;-87
2022/04/24 21:48:08;;;;;;;5.63;4.50;;;;;;;11.09;30.01;99583.34;10448580;28;20293;-88
2022/04/24 21:53:10;;;;;;;5.53;5.03;;;;;;;11.22;29.74;99587.44;10424691;28;20259;-87
2022/04/24 21:58:12;;;;;;;5.38;4.32;;;;;;;11.69;28.59;99591.94;10432520;28;20235;-88
2022/04/24 22:08:36;;;;;;;6.53;5.07;;;;;;;11.58;29.36;99610.28;10484280;28;20468;-88
2022/04/24 22:13:38;;;;;;;5.33;4.83;;;;;;;11.68;29.29;99609.47;10461933;28;20282;-87
2022/04/24 22:18:41;;;;;;;5.83;4.50;;;;;;;11.61;29.42;99621.72;10443539;28;20277;-88
2022/04/24 22:29:10;;;;;;;7.27;5.50;;;;;;;11.48;29.42;99628.22;10434749;28;20207;-88
2022/04/24 22:34:13;;;;;;;5.93;5.27;;;;;;;11.71;29.18;99637.19;10415716;28;20228;-88
2022/04/24 22:39:15;;;;;;;10.73;6.23;;;;;;;11.23;29.93;99640.38;10441126;28;20208;-88
2022/04/24 22:44:18;;;;;;;10.73;6.10;;;;;;;11.25;30.05;99643.63;10416460;28;20241;-88
2022/04/24 22:49:20;;;;;;;8.10;5.87;;;;;;;11.05;30.46;99633.84;10445348;28;20255;-87
2022/04/24 22:54:22;;;;;;;8.47;5.87;;;;;;;11.23;29.88;99637.53;10413831;28;20204;-89
2022/04/24 22:59:24;;;;;;;8.47;6.13;;;;;;;10.66;30.81;99638.59;10404165;28;20549;-88
2022/04/24 23:04:27;;;;;;;7.37;5.83;;;;;;;11.12;29.71;99648.09;10437014;28;20207;-89
2022/04/24 23:09:31;;;;;;;7.30;5.83;;;;;;;10.86;30.15;99656.97;10434744;28;20268;-88
2022/04/24 23:14:34;;;;;;;8.30;5.23;;;;;;;10.69;30.28;99661.41;10403535;28;20502;-88
2022/04/24 23:19:36;;;;;;;10.03;4.90;;;;;;;10.01;30.65;99670.75;10401217;28;20722;-89
2022/04/24 23:24:40;;;;;;;7.77;4.93;;;;;;;10.09;30.62;99670.38;10398175;28;20209;-87
2022/04/24 23:29:42;;;;;;;8.27;4.80;;;;;;;10.08;31.03;99665.09;10422296;28;20208;-86
2022/04/24 23:34:50;;;;;;;5.33;4.80;;;;;;;10.02;31.11;99667.50;10458054;28;20219;-89
2022/04/24 23:39:53;;;;;;;7.17;4.67;;;;;;;10.99;29.44;99672.50;10457216;28;20204;-88
2022/04/24 23:44:55;;;;;;;5.17;4.43;;;;;;;10.19;29.73;99663.13;10457525;28;20215;-86
2022/04/24 23:49:58;;;;;;;5.63;4.25;;;;;;;10.77;29.30;99677.31;10440631;28;20281;-87
2022/04/24 23:55:00;;;;;;;4.50;4.10;;;;;;;10.57;29.77;99691.06;10457222;28;20627;-87
